sensor_id;sensor_type;location;lat;lon;timestamp;temperature;humidity
14409;DHT22;7289;50.706;4.992;2022-07-22T00:01:58;15.40;99.90
14409;DHT22;7289;50.706;4.992;2022-07-22T00:04:27;15.50;99.90
14409;DHT22;7289;50.706;4.992;2022-07-22T00:06:55;15.40;99.90
14409;DHT22;7289;50.706;4.992;2022-07-22T00:09:24;15.40;99.90
14409;DHT22;7289;50.706;4.992;2022-07-22T00:11:55;15.30;99.90
14409;DHT22;7289;50.706;4.992;2022-07-22T00:14:23;15.30;99.90
14409;DHT22;7289;50.706;4.992;2022-07-22T00:16:51;15.20;99.90
14409;DHT22;7289;50.706;4.992;2022-07-22T00:19:20;15.10;99.90
14409;DHT22;7289;50.706;4.992;2022-07-22T00:21:48;15.20;99.90
14409;DHT22;7289;50.706;4.992;2022-07-22T00:24:17;15.10;99.90
14409;DHT22;7289;50.706;4.992;2022-07-22T00:26:45;15.10;99.90
14409;DHT22;7289;50.706;4.992;2022-07-22T00:29:15;15.10;99.90
14409;DHT22;7289;50.706;4.992;2022-07-22T00:31:44;15.00;99.90
14409;DHT22;7289;50.706;4.992;2022-07-22T00:34:12;15.00;99.90
14409;DHT22;7289;50.706;4.992;2022-07-22T00:36:40;15.00;99.90
14409;DHT22;7289;50.706;4.992;2022-07-22T00:39:09;14.90;99.90
14409;DHT22;7289;50.706;4.992;2022-07-22T00:41:37;14.90;99.90
14409;DHT22;7289;50.706;4.992;2022-07-22T00:44:07;14.90;99.90
14409;DHT22;7289;50.706;4.992;2022-07-22T00:46:38;14.80;99.90
14409;DHT22;7289;50.706;4.992;2022-07-22T00:49:08;14.70;99.90
14409;DHT22;7289;50.706;4.992;2022-07-22T00:51:36;14.70;99.90
14409;DHT22;7289;50.706;4.992;2022-07-22T00:54:07;14.60;99.90
14409;DHT22;7289;50.706;4.992;2022-07-22T00:56:35;14.60;99.90
14409;DHT22;7289;50.706;4.992;2022-07-22T00:59:07;14.60;99.90
14409;DHT22;7289;50.706;4.992;2022-07-22T01:01:35;14.60;99.90
14409;DHT22;7289;50.706;4.992;2022-07-22T01:04:05;14.60;99.90
14409;DHT22;7289;50.706;4.992;2022-07-22T01:06:34;14.50;99.90
14409;DHT22;7289;50.706;4.992;2022-07-22T01:09:03;14.50;99.90
14409;DHT22;7289;50.706;4.992;2022-07-22T01:11:32;14.50;99.90
14409;DHT22;7289;50.706;4.992;2022-07-22T01:14:00;14.40;99.90
14409;DHT22;7289;50.706;4.992;2022-07-22T01:16:30;14.40;99.90
14409;DHT22;7289;50.706;4.992;2022-07-22T01:18:58;14.40;99.90
14409;DHT22;7289;50.706;4.992;2022-07-22T01:21:29;14.40;99.90
14409;DHT22;7289;50.706;4.992;2022-07-22T01:23:58;14.30;99.90
14409;DHT22;7289;50.706;4.992;2022-07-22T01:26:27;14.30;99.90
14409;DHT22;7289;50.706;4.992;2022-07-22T01:28:55;14.30;99.90
14409;DHT22;7289;50.706;4.992;2022-07-22T01:31:24;14.20;99.90
14409;DHT22;7289;50.706;4.992;2022-07-22T01:33:53;14.20;99.90
14409;DHT22;7289;50.706;4.992;2022-07-22T01:36:21;14.10;99.90
14409;DHT22;7289;50.706;4.992;2022-07-22T01:38:52;14.10;99.90
14409;DHT22;7289;50.706;4.992;2022-07-22T01:41:21;14.20;99.90
14409;DHT22;7289;50.706;4.992;2022-07-22T01:43:49;14.20;99.90
14409;DHT22;7289;50.706;4.992;2022-07-22T01:46:18;14.20;99.90
14409;DHT22;7289;50.706;4.992;2022-07-22T01:48:47;14.10;99.90
14409;DHT22;7289;50.706;4.992;2022-07-22T01:51:15;14.10;99.90
14409;DHT22;7289;50.706;4.992;2022-07-22T01:53:45;14.00;99.90
14409;DHT22;7289;50.706;4.992;2022-07-22T01:56:15;14.00;99.90
14409;DHT22;7289;50.706;4.992;2022-07-22T01:58:48;13.90;99.90
14409;DHT22;7289;50.706;4.992;2022-07-22T02:01:22;13.80;99.90
14409;DHT22;7289;50.706;4.992;2022-07-22T02:03:52;13.80;99.90
14409;DHT22;7289;50.706;4.992;2022-07-22T02:06:22;13.80;99.90
14409;DHT22;7289;50.706;4.992;2022-07-22T02:08:53;13.70;99.90
14409;DHT22;7289;50.706;4.992;2022-07-22T02:11:33;13.70;99.90
14409;DHT22;7289;50.706;4.992;2022-07-22T02:14:02;13.70;99.90
14409;DHT22;7289;50.706;4.992;2022-07-22T02:16:30;13.70;99.90
14409;DHT22;7289;50.706;4.992;2022-07-22T02:18:59;13.60;99.90
14409;DHT22;7289;50.706;4.992;2022-07-22T02:21:27;13.70;99.90
14409;DHT22;7289;50.706;4.992;2022-07-22T02:23:59;13.60;99.90
14409;DHT22;7289;50.706;4.992;2022-07-22T02:26:29;13.70;99.90
14409;DHT22;7289;50.706;4.992;2022-07-22T02:28:58;13.70;99.90
14409;DHT22;7289;50.706;4.992;2022-07-22T02:31:27;13.70;99.90
14409;DHT22;7289;50.706;4.992;2022-07-22T02:33:56;13.60;99.90
14409;DHT22;7289;50.706;4.992;2022-07-22T02:36:27;13.60;99.90
14409;DHT22;7289;50.706;4.992;2022-07-22T02:38:58;13.60;99.90
14409;DHT22;7289;50.706;4.992;2022-07-22T02:41:27;13.60;99.90
14409;DHT22;7289;50.706;4.992;2022-07-22T02:43:58;13.60;99.90
14409;DHT22;7289;50.706;4.992;2022-07-22T02:46:27;13.50;99.90
14409;DHT22;7289;50.706;4.992;2022-07-22T02:49:03;13.50;99.90
14409;DHT22;7289;50.706;4.992;2022-07-22T02:51:32;13.50;99.90
14409;DHT22;7289;50.706;4.992;2022-07-22T02:54:02;13.40;99.90
14409;DHT22;7289;50.706;4.992;2022-07-22T02:56:30;13.40;99.90
14409;DHT22;7289;50.706;4.992;2022-07-22T02:59:01;13.40;99.90
14409;DHT22;7289;50.706;4.992;2022-07-22T03:01:30;13.30;99.90
14409;DHT22;7289;50.706;4.992;2022-07-22T03:04:00;13.40;99.90
14409;DHT22;7289;50.706;4.992;2022-07-22T03:06:31;13.40;99.90
14409;DHT22;7289;50.706;4.992;2022-07-22T03:09:06;13.50;99.90
14409;DHT22;7289;50.706;4.992;2022-07-22T03:11:36;13.50;99.90
14409;DHT22;7289;50.706;4.992;2022-07-22T03:14:06;13.60;99.90
14409;DHT22;7289;50.706;4.992;2022-07-22T03:16:34;13.60;99.90
14409;DHT22;7289;50.706;4.992;2022-07-22T03:19:03;13.70;99.90
14409;DHT22;7289;50.706;4.992;2022-07-22T03:21:32;13.80;99.90
14409;DHT22;7289;50.706;4.992;2022-07-22T03:24:00;13.80;99.90
14409;DHT22;7289;50.706;4.992;2022-07-22T03:26:31;13.80;99.90
14409;DHT22;7289;50.706;4.992;2022-07-22T03:28:59;13.90;99.90
14409;DHT22;7289;50.706;4.992;2022-07-22T03:31:30;13.90;99.90
14409;DHT22;7289;50.706;4.992;2022-07-22T03:33:59;13.90;99.90
14409;DHT22;7289;50.706;4.992;2022-07-22T03:36:32;13.90;99.90
14409;DHT22;7289;50.706;4.992;2022-07-22T03:39:00;14.00;99.90
14409;DHT22;7289;50.706;4.992;2022-07-22T03:41:29;14.00;99.90
14409;DHT22;7289;50.706;4.992;2022-07-22T03:43:57;14.00;99.90
14409;DHT22;7289;50.706;4.992;2022-07-22T03:46:27;14.00;99.90
14409;DHT22;7289;50.706;4.992;2022-07-22T03:48:57;14.00;99.90
14409;DHT22;7289;50.706;4.992;2022-07-22T03:51:26;14.00;99.90
14409;DHT22;7289;50.706;4.992;2022-07-22T03:54:00;14.00;99.90
14409;DHT22;7289;50.706;4.992;2022-07-22T03:56:29;14.00;99.90
14409;DHT22;7289;50.706;4.992;2022-07-22T03:58:57;13.90;99.90
14409;DHT22;7289;50.706;4.992;2022-07-22T04:01:26;13.90;99.90
14409;DHT22;7289;50.706;4.992;2022-07-22T04:03:57;13.90;99.90
14409;DHT22;7289;50.706;4.992;2022-07-22T04:06:35;13.90;99.90
14409;DHT22;7289;50.706;4.992;2022-07-22T04:09:11;13.80;99.90
14409;DHT22;7289;50.706;4.992;2022-07-22T04:11:40;13.80;99.90
14409;DHT22;7289;50.706;4.992;2022-07-22T04:14:09;13.80;99.90
14409;DHT22;7289;50.706;4.992;2022-07-22T04:16:38;13.70;99.90
14409;DHT22;7289;50.706;4.992;2022-07-22T04:19:10;13.70;99.90
14409;DHT22;7289;50.706;4.992;2022-07-22T04:21:51;13.70;99.90
14409;DHT22;7289;50.706;4.992;2022-07-22T04:24:22;13.70;99.90
14409;DHT22;7289;50.706;4.992;2022-07-22T04:26:52;13.70;99.90
14409;DHT22;7289;50.706;4.992;2022-07-22T04:29:22;13.70;99.90
14409;DHT22;7289;50.706;4.992;2022-07-22T04:31:52;13.70;99.90
14409;DHT22;7289;50.706;4.992;2022-07-22T04:34:30;13.70;99.90
14409;DHT22;7289;50.706;4.992;2022-07-22T04:36:59;13.80;99.90
14409;DHT22;7289;50.706;4.992;2022-07-22T04:39:32;13.80;99.90
14409;DHT22;7289;50.706;4.992;2022-07-22T04:42:01;13.90;99.90
14409;DHT22;7289;50.706;4.992;2022-07-22T04:44:30;13.90;99.90
14409;DHT22;7289;50.706;4.992;2022-07-22T04:46:59;14.00;99.90
14409;DHT22;7289;50.706;4.992;2022-07-22T04:49:35;14.00;99.90
14409;DHT22;7289;50.706;4.992;2022-07-22T04:52:06;14.00;99.90
14409;DHT22;7289;50.706;4.992;2022-07-22T04:54:47;14.10;99.90
14409;DHT22;7289;50.706;4.992;2022-07-22T04:57:16;14.10;99.90
14409;DHT22;7289;50.706;4.992;2022-07-22T04:59:45;14.20;99.90
14409;DHT22;7289;50.706;4.992;2022-07-22T05:02:13;14.30;99.90
14409;DHT22;7289;50.706;4.992;2022-07-22T05:04:44;14.30;99.90
14409;DHT22;7289;50.706;4.992;2022-07-22T05:07:12;14.40;99.90
14409;DHT22;7289;50.706;4.992;2022-07-22T05:09:42;14.50;99.90
14409;DHT22;7289;50.706;4.992;2022-07-22T05:12:14;14.60;99.90
14409;DHT22;7289;50.706;4.992;2022-07-22T05:14:43;14.60;99.90
14409;DHT22;7289;50.706;4.992;2022-07-22T05:17:12;14.70;99.90
14409;DHT22;7289;50.706;4.992;2022-07-22T05:19:57;14.80;99.90
14409;DHT22;7289;50.706;4.992;2022-07-22T05:22:26;14.90;99.90
14409;DHT22;7289;50.706;4.992;2022-07-22T05:25:04;15.00;99.90
14409;DHT22;7289;50.706;4.992;2022-07-22T05:27:32;15.10;99.90
14409;DHT22;7289;50.706;4.992;2022-07-22T05:30:01;15.20;99.90
14409;DHT22;7289;50.706;4.992;2022-07-22T05:32:31;15.40;99.90
14409;DHT22;7289;50.706;4.992;2022-07-22T05:35:04;15.60;99.90
14409;DHT22;7289;50.706;4.992;2022-07-22T05:37:33;15.80;99.90
14409;DHT22;7289;50.706;4.992;2022-07-22T05:40:01;16.10;99.90
14409;DHT22;7289;50.706;4.992;2022-07-22T05:42:30;16.20;99.90
14409;DHT22;7289;50.706;4.992;2022-07-22T05:44:58;16.20;99.90
14409;DHT22;7289;50.706;4.992;2022-07-22T05:47:26;16.50;99.90
14409;DHT22;7289;50.706;4.992;2022-07-22T05:49:55;16.90;99.90
14409;DHT22;7289;50.706;4.992;2022-07-22T05:52:24;17.60;99.90
14409;DHT22;7289;50.706;4.992;2022-07-22T05:54:53;18.30;99.90
14409;DHT22;7289;50.706;4.992;2022-07-22T05:57:21;19.00;99.90
14409;DHT22;7289;50.706;4.992;2022-07-22T05:59:50;19.30;99.90
14409;DHT22;7289;50.706;4.992;2022-07-22T06:02:18;19.20;99.90
14409;DHT22;7289;50.706;4.992;2022-07-22T06:04:48;19.00;99.90
14409;DHT22;7289;50.706;4.992;2022-07-22T06:07:18;18.70;99.90
14409;DHT22;7289;50.706;4.992;2022-07-22T06:09:54;18.60;99.90
14409;DHT22;7289;50.706;4.992;2022-07-22T06:12:23;18.40;99.90
14409;DHT22;7289;50.706;4.992;2022-07-22T06:14:52;18.50;99.90
14409;DHT22;7289;50.706;4.992;2022-07-22T06:17:20;18.60;99.90
14409;DHT22;7289;50.706;4.992;2022-07-22T06:19:48;18.50;99.90
14409;DHT22;7289;50.706;4.992;2022-07-22T06:22:17;18.50;99.90
14409;DHT22;7289;50.706;4.992;2022-07-22T06:24:46;18.50;99.90
14409;DHT22;7289;50.706;4.992;2022-07-22T06:27:16;18.70;99.90
14409;DHT22;7289;50.706;4.992;2022-07-22T06:29:46;18.90;99.90
14409;DHT22;7289;50.706;4.992;2022-07-22T06:32:15;19.10;99.90
14409;DHT22;7289;50.706;4.992;2022-07-22T06:34:47;19.10;99.90
14409;DHT22;7289;50.706;4.992;2022-07-22T06:37:16;19.30;99.90
14409;DHT22;7289;50.706;4.992;2022-07-22T06:39:56;19.50;99.90
14409;DHT22;7289;50.706;4.992;2022-07-22T06:42:41;19.60;99.90
14409;DHT22;7289;50.706;4.992;2022-07-22T06:45:09;19.80;99.90
14409;DHT22;7289;50.706;4.992;2022-07-22T06:47:54;20.00;99.90
14409;DHT22;7289;50.706;4.992;2022-07-22T06:50:23;20.20;99.90
14409;DHT22;7289;50.706;4.992;2022-07-22T06:52:53;20.30;99.30
14409;DHT22;7289;50.706;4.992;2022-07-22T06:55:22;20.40;99.70
14409;DHT22;7289;50.706;4.992;2022-07-22T06:58:03;20.50;99.70
14409;DHT22;7289;50.706;4.992;2022-07-22T07:00:31;20.60;98.60
14409;DHT22;7289;50.706;4.992;2022-07-22T07:03:19;20.30;98.50
14409;DHT22;7289;50.706;4.992;2022-07-22T07:06:06;20.70;98.50
14409;DHT22;7289;50.706;4.992;2022-07-22T07:08:54;20.60;97.60
14409;DHT22;7289;50.706;4.992;2022-07-22T07:11:25;20.60;97.60
14409;DHT22;7289;50.706;4.992;2022-07-22T07:13:55;20.90;97.50
14409;DHT22;7289;50.706;4.992;2022-07-22T07:16:24;20.70;96.90
14409;DHT22;7289;50.706;4.992;2022-07-22T07:18:53;20.80;97.30
14409;DHT22;7289;50.706;4.992;2022-07-22T07:21:21;21.00;97.00
14409;DHT22;7289;50.706;4.992;2022-07-22T07:23:50;20.80;97.00
14409;DHT22;7289;50.706;4.992;2022-07-22T07:26:19;21.10;96.60
14409;DHT22;7289;50.706;4.992;2022-07-22T07:28:48;20.90;96.60
14409;DHT22;7289;50.706;4.992;2022-07-22T07:31:34;21.00;96.70
14409;DHT22;7289;50.706;4.992;2022-07-22T07:34:11;21.50;94.90
14409;DHT22;7289;50.706;4.992;2022-07-22T07:36:39;21.50;94.40
14409;DHT22;7289;50.706;4.992;2022-07-22T07:39:09;21.30;95.40
14409;DHT22;7289;50.706;4.992;2022-07-22T07:41:37;21.40;94.40
14409;DHT22;7289;50.706;4.992;2022-07-22T07:44:07;21.40;94.60
14409;DHT22;7289;50.706;4.992;2022-07-22T07:46:38;21.90;93.50
14409;DHT22;7289;50.706;4.992;2022-07-22T07:49:07;22.40;94.00
14409;DHT22;7289;50.706;4.992;2022-07-22T07:51:36;23.00;92.40
14409;DHT22;7289;50.706;4.992;2022-07-22T07:54:05;23.70;90.90
14409;DHT22;7289;50.706;4.992;2022-07-22T07:56:37;24.10;90.40
14409;DHT22;7289;50.706;4.992;2022-07-22T07:59:05;24.30;90.70
14409;DHT22;7289;50.706;4.992;2022-07-22T08:01:55;24.00;89.10
14409;DHT22;7289;50.706;4.992;2022-07-22T08:04:27;23.30;90.20
14409;DHT22;7289;50.706;4.992;2022-07-22T08:07:16;23.40;90.80
14409;DHT22;7289;50.706;4.992;2022-07-22T08:09:47;23.70;90.90
14409;DHT22;7289;50.706;4.992;2022-07-22T08:12:46;23.70;88.50
14409;DHT22;7289;50.706;4.992;2022-07-22T08:15:32;23.30;90.10
14409;DHT22;7289;50.706;4.992;2022-07-22T08:18:07;23.60;90.40
14409;DHT22;7289;50.706;4.992;2022-07-22T08:20:36;23.80;90.10
14409;DHT22;7289;50.706;4.992;2022-07-22T08:23:05;23.50;90.10
14409;DHT22;7289;50.706;4.992;2022-07-22T08:25:34;23.80;90.20
14409;DHT22;7289;50.706;4.992;2022-07-22T08:28:02;24.00;87.90
14409;DHT22;7289;50.706;4.992;2022-07-22T08:30:31;23.90;88.50
14409;DHT22;7289;50.706;4.992;2022-07-22T08:33:00;23.80;90.00
14409;DHT22;7289;50.706;4.992;2022-07-22T08:35:30;24.20;89.90
14409;DHT22;7289;50.706;4.992;2022-07-22T08:37:58;24.50;86.70
14409;DHT22;7289;50.706;4.992;2022-07-22T08:40:29;24.60;85.60
14409;DHT22;7289;50.706;4.992;2022-07-22T08:43:01;24.50;86.80
14409;DHT22;7289;50.706;4.992;2022-07-22T08:45:31;24.20;85.70
14409;DHT22;7289;50.706;4.992;2022-07-22T08:48:00;23.90;88.10
14409;DHT22;7289;50.706;4.992;2022-07-22T08:50:50;23.90;89.10
14409;DHT22;7289;50.706;4.992;2022-07-22T08:53:24;23.50;89.70
14409;DHT22;7289;50.706;4.992;2022-07-22T08:55:57;23.50;88.80
14409;DHT22;7289;50.706;4.992;2022-07-22T08:58:26;23.60;90.20
14409;DHT22;7289;50.706;4.992;2022-07-22T09:01:05;23.50;88.10
14409;DHT22;7289;50.706;4.992;2022-07-22T09:03:44;23.40;89.60
14409;DHT22;7289;50.706;4.992;2022-07-22T09:06:14;23.20;89.40
14409;DHT22;7289;50.706;4.992;2022-07-22T09:08:54;23.50;90.70
14409;DHT22;7289;50.706;4.992;2022-07-22T09:11:49;24.00;88.00
14409;DHT22;7289;50.706;4.992;2022-07-22T09:14:49;24.40;87.10
14409;DHT22;7289;50.706;4.992;2022-07-22T09:17:37;24.60;85.50
14409;DHT22;7289;50.706;4.992;2022-07-22T09:20:26;24.80;84.50
14409;DHT22;7289;50.706;4.992;2022-07-22T09:23:15;24.20;85.30
14409;DHT22;7289;50.706;4.992;2022-07-22T09:25:47;24.60;86.60
14409;DHT22;7289;50.706;4.992;2022-07-22T09:28:23;24.90;84.60
14409;DHT22;7289;50.706;4.992;2022-07-22T09:31:24;25.10;84.70
14409;DHT22;7289;50.706;4.992;2022-07-22T09:34:03;24.50;85.00
14409;DHT22;7289;50.706;4.992;2022-07-22T09:36:32;24.90;86.70
14409;DHT22;7289;50.706;4.992;2022-07-22T09:39:29;25.00;84.80
14409;DHT22;7289;50.706;4.992;2022-07-22T09:42:00;24.70;83.80
14409;DHT22;7289;50.706;4.992;2022-07-22T09:44:29;25.10;84.10
14409;DHT22;7289;50.706;4.992;2022-07-22T09:47:03;25.30;83.80
14409;DHT22;7289;50.706;4.992;2022-07-22T09:50:14;26.00;83.40
14409;DHT22;7289;50.706;4.992;2022-07-22T09:53:06;26.30;81.00
14409;DHT22;7289;50.706;4.992;2022-07-22T09:55:41;26.00;79.40
14409;DHT22;7289;50.706;4.992;2022-07-22T09:58:09;26.20;79.10
14409;DHT22;7289;50.706;4.992;2022-07-22T10:00:41;26.70;80.70
14409;DHT22;7289;50.706;4.992;2022-07-22T10:03:17;26.60;80.40
14409;DHT22;7289;50.706;4.992;2022-07-22T10:05:48;26.10;78.60
14409;DHT22;7289;50.706;4.992;2022-07-22T10:08:18;25.80;80.60
14409;DHT22;7289;50.706;4.992;2022-07-22T10:10:49;26.10;79.30
14409;DHT22;7289;50.706;4.992;2022-07-22T10:13:18;25.70;79.50
14409;DHT22;7289;50.706;4.992;2022-07-22T10:15:47;25.40;81.40
14409;DHT22;7289;50.706;4.992;2022-07-22T10:18:18;25.30;80.70
14409;DHT22;7289;50.706;4.992;2022-07-22T10:20:52;25.10;84.00
14409;DHT22;7289;50.706;4.992;2022-07-22T10:23:27;25.20;82.30
14409;DHT22;7289;50.706;4.992;2022-07-22T10:25:58;25.60;81.70
14409;DHT22;7289;50.706;4.992;2022-07-22T10:28:30;26.00;80.90
14409;DHT22;7289;50.706;4.992;2022-07-22T10:31:19;26.40;79.80
14409;DHT22;7289;50.706;4.992;2022-07-22T10:33:52;26.40;79.70
14409;DHT22;7289;50.706;4.992;2022-07-22T10:36:32;26.20;79.10
14409;DHT22;7289;50.706;4.992;2022-07-22T10:39:06;25.80;77.90
14409;DHT22;7289;50.706;4.992;2022-07-22T10:41:38;25.70;80.90
14409;DHT22;7289;50.706;4.992;2022-07-22T10:44:06;25.30;80.20
14409;DHT22;7289;50.706;4.992;2022-07-22T10:46:51;25.10;80.30
14409;DHT22;7289;50.706;4.992;2022-07-22T10:49:21;25.30;81.60
14409;DHT22;7289;50.706;4.992;2022-07-22T10:52:09;25.20;82.10
14409;DHT22;7289;50.706;4.992;2022-07-22T10:55:15;25.50;83.10
14409;DHT22;7289;50.706;4.992;2022-07-22T10:57:45;25.40;83.60
14409;DHT22;7289;50.706;4.992;2022-07-22T11:00:15;25.50;81.70
14409;DHT22;7289;50.706;4.992;2022-07-22T11:02:44;25.60;79.70
14409;DHT22;7289;50.706;4.992;2022-07-22T11:05:13;25.80;80.30
14409;DHT22;7289;50.706;4.992;2022-07-22T11:07:43;25.80;80.10
14409;DHT22;7289;50.706;4.992;2022-07-22T11:10:13;25.50;81.80
14409;DHT22;7289;50.706;4.992;2022-07-22T11:12:47;25.80;82.00
14409;DHT22;7289;50.706;4.992;2022-07-22T11:15:17;25.90;79.80
14409;DHT22;7289;50.706;4.992;2022-07-22T11:17:46;25.30;80.90
14409;DHT22;7289;50.706;4.992;2022-07-22T11:20:16;25.10;81.60
14409;DHT22;7289;50.706;4.992;2022-07-22T11:22:46;25.30;80.30
14409;DHT22;7289;50.706;4.992;2022-07-22T11:25:15;24.90;80.40
14409;DHT22;7289;50.706;4.992;2022-07-22T11:27:51;25.20;82.50
14409;DHT22;7289;50.706;4.992;2022-07-22T11:30:19;25.80;80.70
14409;DHT22;7289;50.706;4.992;2022-07-22T11:32:48;25.60;79.50
14409;DHT22;7289;50.706;4.992;2022-07-22T11:35:17;25.90;81.10
14409;DHT22;7289;50.706;4.992;2022-07-22T11:37:55;26.20;78.90
14409;DHT22;7289;50.706;4.992;2022-07-22T11:40:24;26.20;79.60
14409;DHT22;7289;50.706;4.992;2022-07-22T11:43:04;26.70;78.80
14409;DHT22;7289;50.706;4.992;2022-07-22T11:45:32;26.50;78.00
14409;DHT22;7289;50.706;4.992;2022-07-22T11:48:08;26.90;78.40
14409;DHT22;7289;50.706;4.992;2022-07-22T11:50:36;27.30;79.30
14409;DHT22;7289;50.706;4.992;2022-07-22T11:53:05;27.30;77.00
14409;DHT22;7289;50.706;4.992;2022-07-22T11:55:34;26.60;77.20
14409;DHT22;7289;50.706;4.992;2022-07-22T11:58:04;26.50;80.40
14409;DHT22;7289;50.706;4.992;2022-07-22T12:00:32;26.70;80.10
14409;DHT22;7289;50.706;4.992;2022-07-22T12:03:01;27.00;79.20
14409;DHT22;7289;50.706;4.992;2022-07-22T12:05:29;27.30;79.40
14409;DHT22;7289;50.706;4.992;2022-07-22T12:07:59;27.20;76.40
14409;DHT22;7289;50.706;4.992;2022-07-22T12:10:28;27.10;77.20
14409;DHT22;7289;50.706;4.992;2022-07-22T12:12:57;27.00;76.40
14409;DHT22;7289;50.706;4.992;2022-07-22T12:15:27;27.20;77.20
14409;DHT22;7289;50.706;4.992;2022-07-22T12:18:17;27.40;78.70
14409;DHT22;7289;50.706;4.992;2022-07-22T12:20:47;28.10;80.00
14409;DHT22;7289;50.706;4.992;2022-07-22T12:23:21;28.40;76.10
14409;DHT22;7289;50.706;4.992;2022-07-22T12:25:51;28.00;75.00
14409;DHT22;7289;50.706;4.992;2022-07-22T12:28:20;28.20;76.40
14409;DHT22;7289;50.706;4.992;2022-07-22T12:30:51;27.80;75.50
14409;DHT22;7289;50.706;4.992;2022-07-22T12:33:20;27.60;75.70
14409;DHT22;7289;50.706;4.992;2022-07-22T12:36:02;27.90;77.20
14409;DHT22;7289;50.706;4.992;2022-07-22T12:38:32;28.00;74.00
14409;DHT22;7289;50.706;4.992;2022-07-22T12:41:23;27.70;75.30
14409;DHT22;7289;50.706;4.992;2022-07-22T12:43:52;27.50;75.40
14409;DHT22;7289;50.706;4.992;2022-07-22T12:46:22;27.60;77.30
14409;DHT22;7289;50.706;4.992;2022-07-22T12:48:52;27.10;74.90
14409;DHT22;7289;50.706;4.992;2022-07-22T12:51:21;27.10;75.60
14409;DHT22;7289;50.706;4.992;2022-07-22T12:53:49;26.90;77.70
14409;DHT22;7289;50.706;4.992;2022-07-22T12:56:19;27.10;76.40
14409;DHT22;7289;50.706;4.992;2022-07-22T12:58:48;27.20;79.60
14409;DHT22;7289;50.706;4.992;2022-07-22T13:01:17;27.20;77.60
14409;DHT22;7289;50.706;4.992;2022-07-22T13:03:47;27.30;79.60
14409;DHT22;7289;50.706;4.992;2022-07-22T13:06:15;27.60;76.40
14409;DHT22;7289;50.706;4.992;2022-07-22T13:08:43;28.10;76.90
14409;DHT22;7289;50.706;4.992;2022-07-22T13:11:13;28.50;75.30
14409;DHT22;7289;50.706;4.992;2022-07-22T13:13:41;28.30;76.90
14409;DHT22;7289;50.706;4.992;2022-07-22T13:16:12;28.50;75.40
14409;DHT22;7289;50.706;4.992;2022-07-22T13:18:41;28.70;73.70
14409;DHT22;7289;50.706;4.992;2022-07-22T13:21:10;28.40;72.70
14409;DHT22;7289;50.706;4.992;2022-07-22T13:23:39;28.30;73.20
14409;DHT22;7289;50.706;4.992;2022-07-22T13:26:07;28.30;73.50
14409;DHT22;7289;50.706;4.992;2022-07-22T13:28:35;28.20;72.30
14409;DHT22;7289;50.706;4.992;2022-07-22T13:31:04;28.40;72.90
14409;DHT22;7289;50.706;4.992;2022-07-22T13:33:32;28.30;74.50
14409;DHT22;7289;50.706;4.992;2022-07-22T13:36:01;28.50;74.00
14409;DHT22;7289;50.706;4.992;2022-07-22T13:38:31;28.20;74.20
14409;DHT22;7289;50.706;4.992;2022-07-22T13:41:00;28.70;74.30
14409;DHT22;7289;50.706;4.992;2022-07-22T13:43:29;29.00;75.50
14409;DHT22;7289;50.706;4.992;2022-07-22T13:45:58;29.30;73.00
14409;DHT22;7289;50.706;4.992;2022-07-22T13:48:28;29.20;72.90
14409;DHT22;7289;50.706;4.992;2022-07-22T13:50:56;29.00;74.10
14409;DHT22;7289;50.706;4.992;2022-07-22T13:53:25;28.50;74.80
14409;DHT22;7289;50.706;4.992;2022-07-22T13:55:55;28.60;74.20
14409;DHT22;7289;50.706;4.992;2022-07-22T13:58:23;28.40;73.20
14409;DHT22;7289;50.706;4.992;2022-07-22T14:00:52;28.30;74.10
14409;DHT22;7289;50.706;4.992;2022-07-22T14:03:20;28.20;74.90
14409;DHT22;7289;50.706;4.992;2022-07-22T14:05:49;28.40;74.00
14409;DHT22;7289;50.706;4.992;2022-07-22T14:08:17;28.50;73.40
14409;DHT22;7289;50.706;4.992;2022-07-22T14:10:46;28.60;75.70
14409;DHT22;7289;50.706;4.992;2022-07-22T14:13:15;29.00;74.50
14409;DHT22;7289;50.706;4.992;2022-07-22T14:15:44;29.30;73.20
14409;DHT22;7289;50.706;4.992;2022-07-22T14:18:13;29.60;71.80
14409;DHT22;7289;50.706;4.992;2022-07-22T14:20:41;29.00;73.30
14409;DHT22;7289;50.706;4.992;2022-07-22T14:23:09;29.00;71.90
14409;DHT22;7289;50.706;4.992;2022-07-22T14:25:38;29.30;71.80
14409;DHT22;7289;50.706;4.992;2022-07-22T14:28:07;28.90;71.70
14409;DHT22;7289;50.706;4.992;2022-07-22T14:30:57;28.40;73.20
14409;DHT22;7289;50.706;4.992;2022-07-22T14:33:26;28.10;73.80
14409;DHT22;7289;50.706;4.992;2022-07-22T14:35:55;28.00;75.30
14409;DHT22;7289;50.706;4.992;2022-07-22T14:38:24;28.30;75.30
14409;DHT22;7289;50.706;4.992;2022-07-22T14:40:52;28.10;74.40
14409;DHT22;7289;50.706;4.992;2022-07-22T14:43:20;28.30;73.70
14409;DHT22;7289;50.706;4.992;2022-07-22T14:46:02;28.50;75.50
14409;DHT22;7289;50.706;4.992;2022-07-22T14:48:31;28.30;76.30
14409;DHT22;7289;50.706;4.992;2022-07-22T14:50:59;28.30;75.00
14409;DHT22;7289;50.706;4.992;2022-07-22T14:53:28;28.20;75.40
14409;DHT22;7289;50.706;4.992;2022-07-22T14:55:56;27.90;76.20
14409;DHT22;7289;50.706;4.992;2022-07-22T14:58:25;27.80;75.70
14409;DHT22;7289;50.706;4.992;2022-07-22T15:00:54;28.00;74.50
14409;DHT22;7289;50.706;4.992;2022-07-22T15:03:24;28.00;74.90
14409;DHT22;7289;50.706;4.992;2022-07-22T15:05:52;27.90;76.30
14409;DHT22;7289;50.706;4.992;2022-07-22T15:08:22;27.70;75.00
14409;DHT22;7289;50.706;4.992;2022-07-22T15:10:50;27.50;76.50
14409;DHT22;7289;50.706;4.992;2022-07-22T15:13:18;27.70;76.60
14409;DHT22;7289;50.706;4.992;2022-07-22T15:15:53;27.90;75.90
14409;DHT22;7289;50.706;4.992;2022-07-22T15:18:22;28.20;74.30
14409;DHT22;7289;50.706;4.992;2022-07-22T15:20:52;28.20;73.60
14409;DHT22;7289;50.706;4.992;2022-07-22T15:23:23;27.80;74.40
14409;DHT22;7289;50.706;4.992;2022-07-22T15:25:55;27.60;75.70
14409;DHT22;7289;50.706;4.992;2022-07-22T15:28:24;27.50;75.70
14409;DHT22;7289;50.706;4.992;2022-07-22T15:31:02;27.30;76.30
14409;DHT22;7289;50.706;4.992;2022-07-22T15:33:32;27.30;75.90
14409;DHT22;7289;50.706;4.992;2022-07-22T15:36:08;27.40;77.30
14409;DHT22;7289;50.706;4.992;2022-07-22T15:38:37;27.20;77.30
14409;DHT22;7289;50.706;4.992;2022-07-22T15:41:07;27.20;77.30
14409;DHT22;7289;50.706;4.992;2022-07-22T15:43:35;27.20;76.20
14409;DHT22;7289;50.706;4.992;2022-07-22T15:46:06;26.60;77.50
14409;DHT22;7289;50.706;4.992;2022-07-22T15:48:34;26.60;77.70
14409;DHT22;7289;50.706;4.992;2022-07-22T15:51:08;26.60;78.40
14409;DHT22;7289;50.706;4.992;2022-07-22T15:53:36;26.70;78.60
14409;DHT22;7289;50.706;4.992;2022-07-22T15:56:05;26.70;77.80
14409;DHT22;7289;50.706;4.992;2022-07-22T15:58:34;26.70;78.10
14409;DHT22;7289;50.706;4.992;2022-07-22T16:01:40;26.70;77.20
14409;DHT22;7289;50.706;4.992;2022-07-22T16:04:09;26.50;78.30
14409;DHT22;7289;50.706;4.992;2022-07-22T16:06:39;26.50;78.90
14409;DHT22;7289;50.706;4.992;2022-07-22T16:09:07;26.60;78.00
14409;DHT22;7289;50.706;4.992;2022-07-22T16:11:36;26.50;77.70
14409;DHT22;7289;50.706;4.992;2022-07-22T16:14:06;26.50;78.70